Time;durP1;ratioP1;P1;durP2;ratioP2;P2;SDS_P1;SDS_P2;PMS_P1;PMS_P2;Temp;Humidity;BMP_temperature;BMP_pressure;BME280_temperature;BME280_humidity;BME280_pressure;Samples;Min_cycle;Max_cycle;Signal;HPM_P1;HPM_P2
2022/07/07 00:01:01;;;;;;;2.22;1.20;;;21.10;44.60;;;;;;5020331;28;20062;-50
2022/07/07 00:03:28;;;;;;;6.03;1.40;;;21.10;44.60;;;;;;5020971;28;20394;-54
2022/07/07 00:05:57;;;;;;;1.48;1.15;;;21.10;44.60;;;;;;5018782;28;20489;-55
2022/07/07 00:08:24;;;;;;;2.85;1.45;;;21.10;44.70;;;;;;5022178;28;20057;-51
2022/07/07 00:10:52;;;;;;;3.65;1.23;;;21.10;44.70;;;;;;5021784;28;20088;-51
2022/07/07 00:13:19;;;;;;;4.57;1.23;;;21.00;44.70;;;;;;5023137;28;20386;-49
2022/07/07 00:15:47;;;;;;;3.90;1.52;;;21.10;44.80;;;;;;5021651;28;20136;-51
2022/07/07 00:18:14;;;;;;;4.55;1.30;;;21.00;44.70;;;;;;5025399;28;20057;-53
2022/07/07 00:20:42;;;;;;;3.78;1.60;;;21.00;44.70;;;;;;5025525;28;20057;-49
2022/07/07 00:23:11;;;;;;;3.90;1.38;;;21.00;44.70;;;;;;5025613;28;20060;-50
2022/07/07 00:25:38;;;;;;;2.17;1.20;;;21.00;44.80;;;;;;5021039;28;20142;-54
2022/07/07 00:28:06;;;;;;;3.30;1.23;;;21.00;44.80;;;;;;5025448;28;20510;-50
2022/07/07 00:30:33;;;;;;;2.38;1.33;;;21.00;44.80;;;;;;5025488;28;20497;-49
2022/07/07 00:33:01;;;;;;;2.70;1.38;;;21.00;44.90;;;;;;5025141;28;20057;-52
2022/07/07 00:35:28;;;;;;;1.73;1.40;;;21.00;45.00;;;;;;5021778;28;20414;-52
2022/07/07 00:37:56;;;;;;;3.50;1.40;;;20.90;45.00;;;;;;5025841;28;20053;-52
2022/07/07 00:40:25;;;;;;;3.15;1.40;;;21.00;45.00;;;;;;5025900;28;20524;-51
2022/07/07 00:42:52;;;;;;;4.65;1.38;;;21.00;45.10;;;;;;5024883;28;20053;-52
2022/07/07 00:45:20;;;;;;;3.63;1.40;;;20.90;45.10;;;;;;5025244;28;20066;-52
2022/07/07 00:47:48;;;;;;;2.42;1.25;;;20.90;45.20;;;;;;5021989;28;20049;-49
2022/07/07 00:50:16;;;;;;;4.40;1.60;;;21.00;45.20;;;;;;5025325;28;20057;-52
2022/07/07 00:52:43;;;;;;;4.03;1.40;;;20.90;45.20;;;;;;5025033;28;20054;-51
2022/07/07 00:55:11;;;;;;;2.72;1.30;;;20.90;45.30;;;;;;5021092;28;20045;-51
2022/07/07 00:57:40;;;;;;;4.60;1.63;;;20.90;45.40;;;;;;5023470;28;20053;-52
2022/07/07 01:00:11;;;;;;;4.40;1.63;;;20.90;45.50;;;;;;5022820;28;21337;-51
2022/07/07 01:02:39;;;;;;;7.15;2.10;;;20.90;45.60;;;;;;5024250;28;20057;-52
2022/07/07 01:05:09;;;;;;;6.72;1.70;;;20.90;45.70;;;;;;5024566;28;20054;-51
2022/07/07 01:07:37;;;;;;;4.35;1.60;;;20.90;45.90;;;;;;5021859;28;20053;-51
2022/07/07 01:10:07;;;;;;;7.22;1.77;;;20.90;46.00;;;;;;5025273;28;20500;-53
2022/07/07 01:12:36;;;;;;;3.65;2.00;;;20.90;46.00;;;;;;5025234;28;20053;-51
2022/07/07 01:15:07;;;;;;;3.97;1.80;;;20.90;46.00;;;;;;5022478;28;20053;-49
2022/07/07 01:17:35;;;;;;;5.22;2.05;;;20.90;46.10;;;;;;5020865;28;20068;-53
2022/07/07 01:20:04;;;;;;;6.35;2.05;;;20.90;46.20;;;;;;5022425;28;20057;-54
2022/07/07 01:22:34;;;;;;;3.75;1.90;;;20.90;46.30;;;;;;5025036;28;20056;-52
2022/07/07 01:25:04;;;;;;;5.38;1.95;;;20.90;46.40;;;;;;5024746;28;20068;-51
2022/07/07 01:27:32;;;;;;;6.60;1.98;;;20.90;46.50;;;;;;5021930;28;20084;-53
2022/07/07 01:29:59;;;;;;;3.92;1.80;;;20.90;46.50;;;;;;5024531;28;20057;-55
2022/07/07 01:32:28;;;;;;;8.27;2.22;;;20.90;46.60;;;;;;5023596;28;20054;-57
2022/07/07 01:34:55;;;;;;;3.53;1.90;;;20.90;46.70;;;;;;5021722;28;20054;-47
2022/07/07 01:37:24;;;;;;;5.18;2.05;;;20.90;46.60;;;;;;5022521;28;20061;-50
2022/07/07 01:39:53;;;;;;;2.50;1.40;;;20.90;46.60;;;;;;5017745;28;20053;-51
2022/07/07 01:42:22;;;;;;;5.43;1.95;;;20.90;46.60;;;;;;5023125;28;20053;-52
2022/07/07 01:44:51;;;;;;;6.10;2.38;;;20.90;46.70;;;;;;5019909;28;20065;-53
2022/07/07 01:47:20;;;;;;;5.63;2.20;;;20.90;46.70;;;;;;5020174;28;20428;-54
2022/07/07 01:49:48;;;;;;;8.85;2.35;;;20.80;46.80;;;;;;5023457;28;20053;-52
2022/07/07 01:52:15;;;;;;;6.55;1.88;;;20.80;46.90;;;;;;5024097;28;20053;-52
2022/07/07 01:54:43;;;;;;;4.28;1.73;;;20.80;46.80;;;;;;5022118;28;20057;-54
2022/07/07 01:57:11;;;;;;;4.70;2.03;;;20.90;46.80;;;;;;5022881;28;20061;-53
2022/07/07 01:59:40;;;;;;;3.63;2.05;;;20.80;46.80;;;;;;5022131;28;20057;-52
2022/07/07 02:02:10;;;;;;;3.83;1.60;;;20.80;46.90;;;;;;5020647;28;20060;-51
2022/07/07 02:04:37;;;;;;;5.45;1.90;;;20.80;47.00;;;;;;5024429;28;20054;-49
2022/07/07 02:07:05;;;;;;;3.90;2.03;;;20.80;46.90;;;;;;5020632;28;20060;-49
2022/07/07 02:09:32;;;;;;;2.53;1.55;;;20.80;46.90;;;;;;5024691;28;20053;-50
2022/07/07 02:12:00;;;;;;;3.58;2.10;;;20.80;47.00;;;;;;5024051;28;20072;-52
2022/07/07 02:14:27;;;;;;;5.35;2.25;;;20.80;47.00;;;;;;5018912;28;20056;-52
2022/07/07 02:16:56;;;;;;;4.70;1.73;;;20.80;47.10;;;;;;5021444;28;20061;-51
2022/07/07 02:19:25;;;;;;;4.55;1.92;;;20.80;47.10;;;;;;5018759;28;20508;-51
2022/07/07 02:21:54;;;;;;;3.40;1.50;;;20.80;47.10;;;;;;5021086;28;20061;-54
2022/07/07 02:24:22;;;;;;;3.13;1.60;;;20.80;47.20;;;;;;5022730;28;20056;-51
2022/07/07 02:26:50;;;;;;;5.60;1.80;;;20.80;47.20;;;;;;5024017;28;20639;-51
2022/07/07 02:29:17;;;;;;;2.80;1.65;;;20.80;47.30;;;;;;5023662;28;20057;-48
2022/07/07 02:31:45;;;;;;;5.40;1.70;;;20.80;47.30;;;;;;5020087;28;20049;-50
2022/07/07 02:34:15;;;;;;;3.30;1.80;;;20.80;47.30;;;;;;5018910;28;20423;-52
2022/07/07 02:36:42;;;;;;;3.78;1.65;;;20.80;47.40;;;;;;5021876;28;20057;-48
2022/07/07 02:39:10;;;;;;;3.72;1.50;;;20.80;47.40;;;;;;5023905;28;20053;-47
2022/07/07 02:41:37;;;;;;;7.55;2.08;;;20.80;47.40;;;;;;5021072;28;20065;-52
2022/07/07 02:44:05;;;;;;;4.45;1.85;;;20.80;47.60;;;;;;5021132;28;20442;-51
2022/07/07 02:46:33;;;;;;;4.90;1.80;;;20.80;47.80;;;;;;4998951;28;20076;-51
2022/07/07 02:49:00;;;;;;;5.00;1.65;;;20.80;47.90;;;;;;5007336;28;20052;-50
2022/07/07 02:51:30;;;;;;;6.10;1.80;;;20.80;48.00;;;;;;5019946;28;20060;-54
2022/07/07 02:53:58;;;;;;;5.20;1.80;;;20.70;47.90;;;;;;5019711;28;20393;-52
2022/07/07 02:56:25;;;;;;;2.65;1.50;;;20.80;48.00;;;;;;5019376;28;20053;-48
2022/07/07 02:58:52;;;;;;;6.10;2.13;;;20.70;48.10;;;;;;5021458;28;20053;-48
2022/07/07 03:01:20;;;;;;;6.47;2.47;;;20.80;48.20;;;;;;5019368;28;20057;-48
2022/07/07 03:03:47;;;;;;;7.00;2.00;;;20.70;48.60;;;;;;5013002;28;20053;-51
2022/07/07 03:06:15;;;;;;;4.22;2.15;;;20.70;49.00;;;;;;5015924;28;20053;-52
2022/07/07 03:08:44;;;;;;;4.97;1.70;;;20.70;49.10;;;;;;5020724;28;20255;-54
2022/07/07 03:11:12;;;;;;;4.40;1.80;;;20.70;49.60;;;;;;5019387;28;20057;-52
2022/07/07 03:13:39;;;;;;;5.80;2.08;;;20.70;49.70;;;;;;5021460;28;20050;-54
2022/07/07 03:16:07;;;;;;;7.75;2.47;;;20.70;49.80;;;;;;5015615;28;20072;-51
2022/07/07 03:18:35;;;;;;;2.60;1.48;;;20.70;49.90;;;;;;5018026;28;20061;-50
2022/07/07 03:21:02;;;;;;;5.60;2.10;;;20.70;50.00;;;;;;5016944;28;20485;-48
2022/07/07 03:23:29;;;;;;;5.95;2.10;;;20.70;50.30;;;;;;5022175;28;20056;-52
2022/07/07 03:25:58;;;;;;;4.15;2.30;;;20.70;50.50;;;;;;5017570;28;20060;-50
2022/07/07 03:28:26;;;;;;;2.95;1.73;;;20.70;50.50;;;;;;5021318;28;20390;-50
2022/07/07 03:30:53;;;;;;;4.25;2.22;;;20.60;50.50;;;;;;5018337;28;20489;-52
2022/07/07 03:33:21;;;;;;;3.38;2.17;;;20.60;50.50;;;;;;5019575;28;20049;-52
2022/07/07 03:35:48;;;;;;;3.90;1.90;;;20.60;51.00;;;;;;5016445;28;20061;-52
2022/07/07 03:38:16;;;;;;;4.25;1.63;;;20.60;50.70;;;;;;5017250;28;20057;-48
2022/07/07 03:40:44;;;;;;;3.90;2.13;;;20.60;50.70;;;;;;5019624;28;20060;-55
2022/07/07 03:43:13;;;;;;;3.63;1.88;;;20.60;50.90;;;;;;5018240;28;20045;-50
2022/07/07 03:45:41;;;;;;;4.80;2.13;;;20.60;51.20;;;;;;5016685;28;20824;-53
2022/07/07 03:48:08;;;;;;;6.63;1.98;;;20.50;51.20;;;;;;5019859;28;20045;-50
2022/07/07 03:50:35;;;;;;;3.78;2.03;;;20.60;51.40;;;;;;5020030;28;20053;-53
2022/07/07 03:53:03;;;;;;;5.35;1.95;;;20.60;51.50;;;;;;5018168;28;20065;-50
2022/07/07 03:55:30;;;;;;;3.38;1.90;;;20.60;51.60;;;;;;5017946;28;20041;-53
2022/07/07 03:57:58;;;;;;;4.18;2.25;;;20.50;51.60;;;;;;5018721;28;20062;-53
2022/07/07 04:00:27;;;;;;;4.13;2.15;;;20.50;51.60;;;;;;5019247;28;20098;-47
2022/07/07 04:02:54;;;;;;;5.35;2.17;;;20.50;51.60;;;;;;5019124;28;20061;-50
2022/07/07 04:05:22;;;;;;;4.93;2.40;;;20.50;51.50;;;;;;5017125;28;20053;-52
2022/07/07 04:07:49;;;;;;;4.47;2.55;;;20.50;51.50;;;;;;5019311;28;20053;-51
2022/07/07 04:10:17;;;;;;;3.30;1.70;;;20.50;51.60;;;;;;5020594;28;20062;-49
2022/07/07 04:12:44;;;;;;;6.15;2.30;;;20.40;51.60;;;;;;5016565;28;20417;-50
2022/07/07 04:15:12;;;;;;;4.78;2.00;;;20.40;51.70;;;;;;5020038;28;20497;-50
2022/07/07 04:17:41;;;;;;;3.58;2.00;;;20.40;51.70;;;;;;5014220;28;20050;-49
2022/07/07 04:20:09;;;;;;;7.78;2.28;;;20.50;51.80;;;;;;5013312;28;21059;-51
2022/07/07 04:22:36;;;;;;;5.70;2.40;;;20.40;51.80;;;;;;5018109;28;20501;-52
2022/07/07 04:25:04;;;;;;;2.83;2.25;;;20.40;51.90;;;;;;5021616;28;20053;-53
2022/07/07 04:27:32;;;;;;;4.90;2.42;;;20.40;51.90;;;;;;5013253;28;20676;-49
2022/07/07 04:29:59;;;;;;;4.65;2.05;;;20.40;51.90;;;;;;5019624;28;20054;-52
2022/07/07 04:32:27;;;;;;;4.28;2.05;;;20.50;52.10;;;;;;5016459;28;20741;-50
2022/07/07 04:34:56;;;;;;;3.30;2.00;;;20.40;52.10;;;;;;5016806;28;20054;-48
2022/07/07 04:37:23;;;;;;;5.28;2.63;;;20.50;52.30;;;;;;5018505;28;20061;-49
2022/07/07 04:39:51;;;;;;;3.05;2.00;;;20.40;52.20;;;;;;5019448;28;20054;-52
2022/07/07 04:42:18;;;;;;;5.55;2.35;;;20.50;52.30;;;;;;5019419;28;20046;-57
2022/07/07 04:44:46;;;;;;;6.05;2.40;;;20.50;52.50;;;;;;5016309;28;20061;-47
2022/07/07 04:47:13;;;;;;;3.85;1.92;;;20.50;52.50;;;;;;5017430;28;20398;-49
2022/07/07 04:49:41;;;;;;;3.83;1.90;;;20.50;52.60;;;;;;5013549;28;20061;-50
2022/07/07 04:52:10;;;;;;;5.18;2.05;;;20.50;52.50;;;;;;5016718;28;20049;-53
2022/07/07 04:54:38;;;;;;;5.47;2.50;;;20.40;52.70;;;;;;5019425;28;20528;-58
2022/07/07 04:57:06;;;;;;;3.85;1.92;;;20.40;52.80;;;;;;5010715;28;20417;-49
2022/07/07 04:59:33;;;;;;;4.28;2.00;;;20.40;53.00;;;;;;5021202;28;20052;-49
2022/07/07 05:02:01;;;;;;;5.90;3.17;;;20.40;53.20;;;;;;5021405;28;20457;-48
2022/07/07 05:04:28;;;;;;;4.97;2.58;;;20.40;53.20;;;;;;5019330;28;20046;-51
2022/07/07 05:06:56;;;;;;;6.50;2.25;;;20.40;53.40;;;;;;5023217;28;20849;-53
2022/07/07 05:09:25;;;;;;;4.60;2.38;;;20.40;53.70;;;;;;5024084;28;20057;-51
2022/07/07 05:11:52;;;;;;;5.45;2.50;;;20.40;53.80;;;;;;5022492;28;20057;-51
2022/07/07 05:14:20;;;;;;;5.05;2.08;;;20.40;54.10;;;;;;5021924;28;20474;-51
2022/07/07 05:16:47;;;;;;;3.78;2.05;;;20.40;54.00;;;;;;5021201;28;20049;-48
2022/07/07 05:19:16;;;;;;;2.90;2.00;;;20.30;53.80;;;;;;5020499;28;20061;-53
2022/07/07 05:21:43;;;;;;;5.50;2.17;;;20.40;53.90;;;;;;5023257;28;20056;-53
2022/07/07 05:24:11;;;;;;;8.13;2.25;;;20.40;54.00;;;;;;5017951;28;20053;-50
2022/07/07 05:26:40;;;;;;;3.22;1.88;;;20.40;54.00;;;;;;5016639;28;20053;-58
2022/07/07 05:29:07;;;;;;;3.38;2.05;;;20.50;54.00;;;;;;5022485;28;20049;-51
2022/07/07 05:31:35;;;;;;;5.05;2.35;;;20.50;54.20;;;;;;5016836;28;20053;-51
2022/07/07 05:34:02;;;;;;;6.45;2.30;;;20.60;54.20;;;;;;5023624;28;20386;-54
2022/07/07 05:36:30;;;;;;;3.60;1.98;;;20.50;54.30;;;;;;5019471;28;20056;-51
2022/07/07 05:38:57;;;;;;;3.83;1.95;;;20.60;54.10;;;;;;5023259;28;20056;-54
2022/07/07 05:41:25;;;;;;;5.55;2.20;;;20.60;54.30;;;;;;5022598;28;20057;-51
2022/07/07 05:43:54;;;;;;;3.40;1.80;;;20.60;54.20;;;;;;5020190;28;20053;-52
2022/07/07 05:46:22;;;;;;;7.85;1.98;;;20.60;54.10;;;;;;5020852;28;20065;-53
2022/07/07 05:48:49;;;;;;;4.15;2.30;;;20.70;54.20;;;;;;5020122;28;20053;-53
2022/07/07 05:51:17;;;;;;;4.50;2.25;;;20.60;54.10;;;;;;5017824;28;20053;-50
2022/07/07 05:53:44;;;;;;;6.90;2.20;;;20.70;54.20;;;;;;5023010;28;20549;-51
2022/07/07 05:56:11;;;;;;;3.10;2.00;;;20.70;54.30;;;;;;5018999;28;20065;-50
2022/07/07 05:58:39;;;;;;;4.72;1.95;;;20.70;54.20;;;;;;5019232;28;20053;-50
2022/07/07 06:01:08;;;;;;;4.60;2.10;;;20.70;54.30;;;;;;5018666;28;20052;-49
2022/07/07 06:03:36;;;;;;;4.00;2.20;;;20.70;54.60;;;;;;5017153;28;20049;-54
2022/07/07 06:06:04;;;;;;;3.95;2.30;;;20.70;54.40;;;;;;5020912;28;20057;-54
2022/07/07 06:08:31;;;;;;;2.65;1.73;;;20.70;54.40;;;;;;5024140;28;20061;-49
2022/07/07 06:10:59;;;;;;;5.63;1.73;;;20.70;54.50;;;;;;5020597;28;20398;-51
2022/07/07 06:13:26;;;;;;;3.63;1.73;;;20.70;54.60;;;;;;5023053;28;20053;-57
2022/07/07 06:15:54;;;;;;;4.28;2.08;;;20.70;54.60;;;;;;5020841;28;20068;-51
2022/07/07 06:18:22;;;;;;;5.10;2.20;;;20.70;54.60;;;;;;5022550;28;20057;-54
2022/07/07 06:20:50;;;;;;;4.78;2.70;;;20.70;54.80;;;;;;5021684;28;20077;-56
2022/07/07 06:23:18;;;;;;;4.47;2.10;;;20.70;54.90;;;;;;5018548;28;20512;-51
2022/07/07 06:25:45;;;;;;;4.40;2.40;;;20.70;55.20;;;;;;5022260;28;20409;-53
2022/07/07 06:28:13;;;;;;;15.13;2.40;;;20.70;55.40;;;;;;5020695;28;20049;-53
2022/07/07 06:30:40;;;;;;;3.13;2.15;;;20.70;55.60;;;;;;5019809;28;20060;-52
2022/07/07 06:33:08;;;;;;;3.30;2.03;;;20.70;55.60;;;;;;5022235;28;20053;-50
2022/07/07 06:35:37;;;;;;;4.30;2.70;;;20.70;55.70;;;;;;5020006;28;20408;-55
2022/07/07 06:38:04;;;;;;;6.75;2.50;;;20.60;55.90;;;;;;5023455;28;20058;-55
2022/07/07 06:40:32;;;;;;;3.70;2.30;;;20.60;56.00;;;;;;5022183;28;21716;-53
2022/07/07 06:42:59;;;;;;;5.63;3.10;;;20.60;56.20;;;;;;5022290;28;20064;-54
2022/07/07 06:45:29;;;;;;;5.32;3.00;;;20.50;56.80;;;;;;5019532;28;20064;-51
2022/07/07 06:47:56;;;;;;;6.93;3.40;;;20.50;57.20;;;;;;5021515;28;20061;-58
2022/07/07 06:50:24;;;;;;;5.03;3.25;;;20.40;57.60;;;;;;5017696;28;20413;-53
2022/07/07 06:52:53;;;;;;;6.05;3.60;;;20.40;57.90;;;;;;5019761;28;20054;-54
2022/07/07 06:55:20;;;;;;;7.93;3.70;;;20.30;58.40;;;;;;5009978;28;20488;-50
2022/07/07 06:57:48;;;;;;;5.93;3.80;;;20.20;58.50;;;;;;5014458;28;20053;-56
2022/07/07 07:00:16;;;;;;;7.35;3.65;;;20.20;58.70;;;;;;5018050;28;20054;-58
2022/07/07 07:02:44;;;;;;;4.40;3.45;;;20.10;59.10;;;;;;5021291;28;20084;-54
2022/07/07 07:05:12;;;;;;;20.35;4.65;;;20.00;59.70;;;;;;5022285;28;20049;-55
2022/07/07 07:07:39;;;;;;;8.90;4.00;;;19.90;62.40;;;;;;5019900;28;20068;-54
2022/07/07 07:10:09;;;;;;;8.30;2.45;;;19.70;63.30;;;;;;5021662;28;20064;-48
2022/07/07 07:12:37;;;;;;;3.33;1.85;;;19.50;63.60;;;;;;5017017;28;20058;-52
2022/07/07 07:15:05;;;;;;;4.63;1.80;;;19.20;64.20;;;;;;5020432;28;20053;-57
2022/07/07 07:17:33;;;;;;;4.10;2.00;;;19.00;65.00;;;;;;5016042;28;20065;-55
2022/07/07 07:20:01;;;;;;;3.63;2.20;;;18.70;66.40;;;;;;5021712;28;20489;-54
2022/07/07 07:22:28;;;;;;;5.20;2.40;;;18.60;68.00;;;;;;5020131;28;20053;-57
2022/07/07 07:24:56;;;;;;;7.10;2.33;;;18.40;69.40;;;;;;5020683;28;20528;-57
2022/07/07 07:27:24;;;;;;;5.57;2.70;;;18.30;70.50;;;;;;5016227;28;20053;-48
2022/07/07 07:29:52;;;;;;;5.85;3.63;;;18.30;71.70;;;;;;5022017;28;20080;-48
2022/07/07 07:32:19;;;;;;;7.35;3.80;;;18.20;72.80;;;;;;5017408;28;20512;-53
2022/07/07 07:34:47;;;;;;;6.72;4.35;;;18.20;73.70;;;;;;5021256;28;20056;-50
2022/07/07 07:37:15;;;;;;;6.13;5.00;;;18.20;74.70;;;;;;5012476;28;20045;-55
2022/07/07 07:39:42;;;;;;;8.10;5.22;;;18.20;75.90;;;;;;5022127;28;20049;-53
2022/07/07 07:42:10;;;;;;;7.35;5.38;;;18.20;76.20;;;;;;5020767;28;20060;-54
2022/07/07 07:47:24;;;;;;;10.10;6.60;;;18.30;76.50;;;;;;5021580;28;20572;-51
2022/07/07 07:49:51;;;;;;;11.00;6.15;;;18.30;75.70;;;;;;5017591;28;20049;-56
2022/07/07 07:52:19;;;;;;;6.70;5.70;;;18.30;75.20;;;;;;5016413;28;20064;-51
2022/07/07 07:54:46;;;;;;;12.60;6.13;;;18.30;75.40;;;;;;5019880;28;20072;-54
2022/07/07 07:57:14;;;;;;;7.95;6.78;;;18.30;75.60;;;;;;5014696;28;20057;-49
2022/07/07 07:59:42;;;;;;;13.70;7.05;;;18.30;76.40;;;;;;5022076;28;20060;-55
2022/07/07 08:02:10;;;;;;;10.73;7.50;;;18.30;77.00;;;;;;5016726;28;20057;-49
2022/07/07 08:04:37;;;;;;;14.02;7.95;;;18.30;77.50;;;;;;5021871;28;20045;-58
2022/07/07 08:07:05;;;;;;;9.98;7.32;;;18.30;77.90;;;;;;5019691;28;20406;-51
2022/07/07 08:09:32;;;;;;;7.45;6.40;;;18.30;78.10;;;;;;5018093;28;20053;-44
2022/07/07 08:12:00;;;;;;;6.97;5.85;;;18.40;77.80;;;;;;5018995;28;20057;-54
2022/07/07 08:14:27;;;;;;;8.90;5.03;;;18.40;77.10;;;;;;5019573;28;20045;-53
2022/07/07 08:16:56;;;;;;;6.50;4.63;;;18.40;76.30;;;;;;5017425;28;20049;-51
2022/07/07 08:19:24;;;;;;;4.82;4.32;;;18.40;76.40;;;;;;5018088;28;20062;-51
2022/07/07 08:21:51;;;;;;;6.85;3.97;;;18.50;76.20;;;;;;5019194;28;20061;-55
2022/07/07 08:24:19;;;;;;;4.72;3.25;;;18.50;75.90;;;;;;5019373;28;20409;-48
2022/07/07 08:26:46;;;;;;;6.05;2.50;;;18.50;75.20;;;;;;5018922;28;20434;-56
2022/07/07 08:29:14;;;;;;;4.72;2.45;;;18.50;74.30;;;;;;5019289;28;20049;-58
2022/07/07 08:31:42;;;;;;;3.92;2.30;;;18.50;73.90;;;;;;5013409;28;20061;-51
2022/07/07 08:34:11;;;;;;;4.65;2.22;;;18.50;73.50;;;;;;5020974;28;20053;-53
2022/07/07 08:36:39;;;;;;;2.30;1.65;;;18.50;73.60;;;;;;5017532;28;20050;-55
2022/07/07 08:39:07;;;;;;;3.95;1.85;;;18.40;73.60;;;;;;5020138;28;20486;-47
2022/07/07 08:41:35;;;;;;;2.08;1.60;;;18.40;73.40;;;;;;5024820;28;20417;-46
2022/07/07 08:44:04;;;;;;;3.03;1.67;;;18.50;74.30;;;;;;5017597;28;20068;-53
2022/07/07 08:46:31;;;;;;;3.15;1.50;;;18.50;74.40;;;;;;5020682;28;20837;-55
2022/07/07 08:48:59;;;;;;;3.28;1.50;;;18.50;73.70;;;;;;5020040;28;20057;-59
2022/07/07 08:51:28;;;;;;;4.90;1.40;;;18.50;72.50;;;;;;5023559;28;20050;-52
2022/07/07 08:53:56;;;;;;;3.85;0.95;;;18.50;72.00;;;;;;5022515;28;20057;-54
2022/07/07 08:56:24;;;;;;;1.38;1.05;;;18.50;71.40;;;;;;5018225;28;20050;-60
2022/07/07 08:58:52;;;;;;;4.60;1.35;;;18.50;71.10;;;;;;5021650;28;20402;-58
2022/07/07 09:01:19;;;;;;;4.25;0.88;;;18.50;71.70;;;;;;5021428;28;20054;-55
2022/07/07 09:03:47;;;;;;;3.17;0.73;;;18.60;71.40;;;;;;5021882;28;20065;-54
2022/07/07 09:06:16;;;;;;;2.60;0.82;;;18.60;69.30;;;;;;5019981;28;20455;-57
2022/07/07 09:08:45;;;;;;;2.35;0.57;;;18.60;67.70;;;;;;5024165;28;20060;-58
2022/07/07 09:11:12;;;;;;;0.70;0.47;;;18.60;68.10;;;;;;5020265;28;20057;-57
2022/07/07 09:13:40;;;;;;;3.72;0.47;;;18.60;67.70;;;;;;5022053;28;20056;-55
2022/07/07 09:16:17;;;;;;;1.42;0.30;;;18.60;68.00;;;;;;5018206;28;20053;-49
2022/07/07 09:18:46;;;;;;;3.42;0.60;;;18.70;68.00;;;;;;5021782;28;20053;-52
2022/07/07 09:21:28;;;;;;;3.55;0.93;;;18.80;68.00;;;;;;5023265;28;20489;-58
2022/07/07 09:23:59;;;;;;;3.80;0.90;;;18.80;69.00;;;;;;5023424;28;20064;-54
2022/07/07 09:26:37;;;;;;;2.58;0.95;;;18.80;67.90;;;;;;5016705;28;20049;-59
2022/07/07 09:29:06;;;;;;;2.50;0.90;;;18.90;67.70;;;;;;5023296;28;20053;-52
2022/07/07 09:31:55;;;;;;;3.80;1.00;;;19.00;66.80;;;;;;5019041;28;20057;-57
2022/07/07 09:34:24;;;;;;;3.72;1.17;;;19.00;67.80;;;;;;5022411;28;20823;-49
2022/07/07 09:39:47;;;;;;;8.60;1.50;;;19.20;66.20;;;;;;5025535;28;20531;-57
2022/07/07 09:42:22;;;;;;;6.22;1.27;;;19.20;65.80;;;;;;5024159;28;20513;-54
2022/07/07 09:44:51;;;;;;;5.93;1.70;;;19.20;65.70;;;;;;5021726;28;20052;-57
2022/07/07 09:47:20;;;;;;;4.93;1.42;;;19.20;66.10;;;;;;5016646;28;20394;-47
2022/07/07 09:50:03;;;;;;;9.70;1.48;;;19.20;65.70;;;;;;5023129;28;20058;-52
2022/07/07 09:52:34;;;;;;;6.60;1.30;;;19.20;63.60;;;;;;5022157;28;20042;-55
2022/07/07 09:55:05;;;;;;;4.43;0.90;;;19.20;62.80;;;;;;5022650;28;20057;-57
2022/07/07 09:57:32;;;;;;;3.53;0.80;;;19.20;63.20;;;;;;5019079;28;20049;-58
2022/07/07 10:00:00;;;;;;;7.35;0.75;;;19.00;62.40;;;;;;5023528;28;20084;-50
2022/07/07 10:02:30;;;;;;;1.88;0.57;;;18.90;62.30;;;;;;5021963;28;20529;-55
2022/07/07 10:04:59;;;;;;;6.70;0.80;;;18.90;63.00;;;;;;5022375;28;20057;-59
2022/07/07 10:07:29;;;;;;;2.15;0.80;;;18.80;62.30;;;;;;5015551;28;20060;-57
2022/07/07 10:09:59;;;;;;;4.57;0.85;;;18.80;62.60;;;;;;5023780;28;20413;-52
2022/07/07 10:12:30;;;;;;;4.57;1.20;;;18.80;62.80;;;;;;5022214;28;20536;-52
2022/07/07 10:15:00;;;;;;;2.30;0.82;;;18.80;62.20;;;;;;5022898;28;20997;-54
2022/07/07 10:17:29;;;;;;;5.82;1.00;;;18.80;63.30;;;;;;5017596;28;20049;-60
2022/07/07 10:19:57;;;;;;;8.05;1.75;;;18.90;64.20;;;;;;5024415;28;20069;-57
2022/07/07 10:22:27;;;;;;;6.00;1.67;;;19.00;64.20;;;;;;5023009;28;20057;-55
2022/07/07 10:24:56;;;;;;;6.57;1.48;;;19.00;64.40;;;;;;5022326;28;20057;-57
2022/07/07 10:27:26;;;;;;;3.85;1.50;;;19.10;64.90;;;;;;5020517;28;20046;-60
2022/07/07 10:29:55;;;;;;;5.78;1.13;;;19.20;64.70;;;;;;5022909;28;20064;-57
2022/07/07 10:32:31;;;;;;;5.32;1.52;;;19.20;65.20;;;;;;5018936;28;20056;-59
2022/07/07 10:35:00;;;;;;;25.35;1.77;;;19.20;64.40;;;;;;5024080;28;20556;-57
2022/07/07 10:37:28;;;;;;;4.97;1.15;;;19.30;64.30;;;;;;5013458;28;20477;-59
2022/07/07 10:39:57;;;;;;;4.00;1.35;;;19.30;63.00;;;;;;5023205;28;20556;-53
2022/07/07 10:43:06;;;;;;;4.95;1.10;;;19.30;61.20;;;;;;5017170;28;20061;-55
2022/07/07 10:45:35;;;;;;;4.28;1.20;;;19.30;61.50;;;;;;5016270;28;20046;-56
2022/07/07 10:48:07;;;;;;;5.45;1.33;;;19.20;60.50;;;;;;5016736;28;20050;-57
2022/07/07 10:50:35;;;;;;;3.42;1.30;;;19.20;60.40;;;;;;5020525;28;20060;-55
2022/07/07 10:53:03;;;;;;;5.53;1.13;;;19.20;61.00;;;;;;5016929;28;20624;-55
2022/07/07 10:55:58;;;;;;;5.82;1.08;;;19.20;60.10;;;;;;5019683;28;20516;-52
2022/07/07 10:58:57;;;;;;;3.55;1.00;;;19.10;60.30;;;;;;5002965;28;20053;-50
2022/07/07 11:01:28;;;;;;;4.43;0.85;;;19.20;60.40;;;;;;5016797;28;20057;-57
2022/07/07 11:03:56;;;;;;;7.60;1.20;;;19.20;60.30;;;;;;5018529;28;20053;-54
2022/07/07 11:06:24;;;;;;;4.03;0.90;;;19.20;60.40;;;;;;5017997;28;20057;-56
2022/07/07 11:09:01;;;;;;;9.43;1.33;;;19.20;61.30;;;;;;5018909;28;20046;-53
2022/07/07 11:11:29;;;;;;;3.45;0.88;;;19.20;59.50;;;;;;5019049;28;20053;-57
2022/07/07 11:14:11;;;;;;;3.25;1.02;;;19.20;59.80;;;;;;5019474;28;20053;-52
2022/07/07 11:16:40;;;;;;;2.10;0.70;;;19.20;59.20;;;;;;5016535;28;20050;-56
2022/07/07 11:19:09;;;;;;;5.18;1.05;;;19.20;58.20;;;;;;5018263;28;20066;-52
2022/07/07 11:21:41;;;;;;;2.85;0.77;;;19.20;58.80;;;;;;5023149;28;20058;-52
2022/07/07 11:24:17;;;;;;;1.88;0.70;;;19.30;58.30;;;;;;5022589;28;20069;-56
2022/07/07 11:26:57;;;;;;;5.45;1.13;;;19.30;58.60;;;;;;5019073;28;20552;-51
2022/07/07 11:29:25;;;;;;;2.15;0.70;;;19.40;58.10;;;;;;5020903;28;20057;-50
2022/07/07 11:32:06;;;;;;;5.63;0.88;;;19.50;58.40;;;;;;5022217;28;20540;-49
2022/07/07 11:34:44;;;;;;;3.72;0.80;;;19.60;58.50;;;;;;5020360;28;20057;-54
2022/07/07 11:37:24;;;;;;;1.73;0.60;;;19.60;57.70;;;;;;5020042;28;20512;-53
2022/07/07 11:39:52;;;;;;;1.65;0.80;;;19.70;58.10;;;;;;5020376;28;20423;-56
2022/07/07 11:42:19;;;;;;;5.30;1.00;;;19.80;58.20;;;;;;5020979;28;20057;-52
2022/07/07 11:44:46;;;;;;;4.55;1.20;;;19.80;57.80;;;;;;5021801;28;20068;-53
2022/07/07 11:47:16;;;;;;;2.33;0.73;;;19.70;57.70;;;;;;5019553;28;20046;-53
2022/07/07 11:49:44;;;;;;;4.47;0.80;;;19.80;57.80;;;;;;5022858;28;20497;-57
2022/07/07 11:52:16;;;;;;;3.60;1.02;;;19.70;58.20;;;;;;5020802;28;20053;-50
2022/07/07 11:54:45;;;;;;;6.55;1.00;;;19.70;57.80;;;;;;5383711;23;20057;-49
2022/07/07 11:57:12;;;;;;;4.78;1.00;;;19.60;57.50;;;;;;4981168;28;20065;-47
2022/07/07 11:59:43;;;;;;;8.73;1.20;;;19.60;58.20;;;;;;4982931;28;20066;-45
2022/07/07 12:02:20;;;;;;;3.33;0.73;;;19.60;58.80;;;;;;4982433;28;20081;-44
2022/07/07 12:04:53;;;;;;;6.90;1.20;;;19.70;57.80;;;;;;4983163;28;20409;-47
2022/07/07 12:07:21;;;;;;;3.25;0.95;;;19.70;57.90;;;;;;4982159;28;20046;-47
2022/07/07 12:09:48;;;;;;;3.42;1.00;;;19.70;57.40;;;;;;4984336;28;20054;-43
2022/07/07 12:12:19;;;;;;;3.10;0.80;;;19.80;57.90;;;;;;4986621;28;20081;-52
2022/07/07 12:14:47;;;;;;;6.88;0.85;;;19.90;57.30;;;;;;4986271;28;20438;-45
2022/07/07 12:17:14;;;;;;;3.42;0.80;;;19.90;56.50;;;;;;4984741;28;20054;-47
2022/07/07 12:19:50;;;;;;;2.05;0.73;;;19.90;56.80;;;;;;4985545;28;20050;-49
2022/07/07 12:22:33;;;;;;;6.13;0.57;;;19.80;56.90;;;;;;4987512;28;20057;-48
2022/07/07 12:25:02;;;;;;;5.20;0.90;;;19.70;56.70;;;;;;4985983;28;20050;-47
2022/07/07 12:27:30;;;;;;;4.78;0.80;;;19.60;56.60;;;;;;4985961;28;20057;-48
2022/07/07 12:30:01;;;;;;;3.03;0.57;;;19.60;56.70;;;;;;4986151;28;20061;-48
2022/07/07 12:32:29;;;;;;;5.30;1.10;;;19.50;57.30;;;;;;4986160;28;20609;-50
2022/07/07 12:34:58;;;;;;;3.55;0.80;;;19.50;57.70;;;;;;4985878;28;20077;-56
2022/07/07 12:37:41;;;;;;;2.75;0.88;;;19.50;58.00;;;;;;4984893;28;20422;-52
2022/07/07 12:40:10;;;;;;;4.38;1.08;;;19.50;58.50;;;;;;4985188;28;20604;-52
2022/07/07 12:42:38;;;;;;;5.63;1.08;;;19.50;58.30;;;;;;4985802;28;20148;-50
2022/07/07 12:45:12;;;;;;;7.63;1.58;;;19.50;58.30;;;;;;4987054;28;20077;-48
2022/07/07 12:47:46;;;;;;;4.45;0.93;;;19.50;57.60;;;;;;4984400;28;20046;-57
2022/07/07 12:50:15;;;;;;;6.83;1.50;;;19.60;57.70;;;;;;4987097;28;20054;-52
2022/07/07 12:52:54;;;;;;;4.13;1.27;;;19.60;57.90;;;;;;4986608;28;20054;-59
2022/07/07 12:55:22;;;;;;;8.95;1.40;;;19.60;57.30;;;;;;4985577;28;20089;-60
2022/07/07 12:57:49;;;;;;;3.28;1.40;;;19.60;57.60;;;;;;4986088;28;20050;-49
2022/07/07 13:00:27;;;;;;;3.28;1.27;;;19.60;57.60;;;;;;4984152;28;20528;-50